Terminal Aerodrome Forecast
Issued by NWS Amarillo, TX

Home | Current Version | Previous Version | Text Only | Print | Product List | Glossary On
Versions: 1 2 3 4 5 6 7 8 9 10 11 12
000
FTUS44 KAMA 261700
TAFGUY
TAF
KGUY 261733Z 2618/2718 01012KT P6SM OVC015
      TEMPO 2620/2624 3SM -SN BR
     FM270200 34008KT P6SM OVC015=

USA.gov is the U.S. government's official web portal to all federal, state and local government web resources and services.